sensor_id;sensor_type;location;lat;lon;timestamp;P1;durP1;ratioP1;P2;durP2;ratioP2
22070;SDS011;11200;51.488;6.668;2022-11-20T00:01:25;15.05;;;11.55;;
22070;SDS011;11200;51.488;6.668;2022-11-20T00:03:52;14.88;;;10.70;;
22070;SDS011;11200;51.488;6.668;2022-11-20T00:06:19;14.52;;;10.77;;
22070;SDS011;11200;51.488;6.668;2022-11-20T00:08:45;14.27;;;10.88;;
22070;SDS011;11200;51.488;6.668;2022-11-20T00:11:12;16.05;;;11.40;;
22070;SDS011;11200;51.488;6.668;2022-11-20T00:13:40;15.90;;;11.40;;
22070;SDS011;11200;51.488;6.668;2022-11-20T00:16:07;13.80;;;10.75;;
22070;SDS011;11200;51.488;6.668;2022-11-20T00:18:34;16.48;;;11.30;;
22070;SDS011;11200;51.488;6.668;2022-11-20T00:21:01;17.48;;;11.32;;
22070;SDS011;11200;51.488;6.668;2022-11-20T00:23:27;14.98;;;11.43;;
22070;SDS011;11200;51.488;6.668;2022-11-20T00:25:53;13.52;;;11.02;;
22070;SDS011;11200;51.488;6.668;2022-11-20T00:28:19;18.02;;;11.25;;
22070;SDS011;11200;51.488;6.668;2022-11-20T00:30:44;15.68;;;11.38;;
22070;SDS011;11200;51.488;6.668;2022-11-20T00:33:10;15.57;;;11.15;;
22070;SDS011;11200;51.488;6.668;2022-11-20T00:35:35;15.00;;;11.40;;
22070;SDS011;11200;51.488;6.668;2022-11-20T00:38:01;16.67;;;11.48;;
22070;SDS011;11200;51.488;6.668;2022-11-20T00:40:26;14.95;;;11.50;;
22070;SDS011;11200;51.488;6.668;2022-11-20T00:42:52;16.38;;;11.85;;
22070;SDS011;11200;51.488;6.668;2022-11-20T00:45:17;15.73;;;11.65;;
22070;SDS011;11200;51.488;6.668;2022-11-20T00:47:43;14.00;;;10.80;;
22070;SDS011;11200;51.488;6.668;2022-11-20T00:50:09;15.88;;;11.77;;
22070;SDS011;11200;51.488;6.668;2022-11-20T00:52:34;15.80;;;12.05;;
22070;SDS011;11200;51.488;6.668;2022-11-20T00:55:00;17.67;;;12.85;;
22070;SDS011;11200;51.488;6.668;2022-11-20T00:57:26;15.82;;;11.43;;
22070;SDS011;11200;51.488;6.668;2022-11-20T00:59:51;17.30;;;11.95;;
22070;SDS011;11200;51.488;6.668;2022-11-20T01:02:17;15.30;;;10.98;;
22070;SDS011;11200;51.488;6.668;2022-11-20T01:04:42;16.23;;;11.90;;
22070;SDS011;11200;51.488;6.668;2022-11-20T01:07:08;15.05;;;10.98;;
22070;SDS011;11200;51.488;6.668;2022-11-20T01:09:33;16.33;;;11.55;;
22070;SDS011;11200;51.488;6.668;2022-11-20T01:11:59;17.30;;;11.95;;
22070;SDS011;11200;51.488;6.668;2022-11-20T01:14:25;15.30;;;11.75;;
22070;SDS011;11200;51.488;6.668;2022-11-20T01:16:51;18.20;;;12.98;;
22070;SDS011;11200;51.488;6.668;2022-11-20T01:19:18;15.80;;;11.48;;
22070;SDS011;11200;51.488;6.668;2022-11-20T01:21:47;15.30;;;11.85;;
22070;SDS011;11200;51.488;6.668;2022-11-20T01:24:15;15.25;;;11.85;;
22070;SDS011;11200;51.488;6.668;2022-11-20T01:26:42;17.17;;;11.60;;
22070;SDS011;11200;51.488;6.668;2022-11-20T01:29:19;18.27;;;12.43;;
22070;SDS011;11200;51.488;6.668;2022-11-20T01:31:49;15.57;;;11.68;;
22070;SDS011;11200;51.488;6.668;2022-11-20T01:34:17;17.00;;;12.57;;
22070;SDS011;11200;51.488;6.668;2022-11-20T01:36:44;17.15;;;12.93;;
22070;SDS011;11200;51.488;6.668;2022-11-20T01:39:12;16.17;;;12.00;;
22070;SDS011;11200;51.488;6.668;2022-11-20T01:41:42;16.23;;;12.23;;
22070;SDS011;11200;51.488;6.668;2022-11-20T01:44:45;17.13;;;12.55;;
22070;SDS011;11200;51.488;6.668;2022-11-20T01:47:13;17.80;;;12.70;;
22070;SDS011;11200;51.488;6.668;2022-11-20T01:49:48;15.35;;;11.88;;
22070;SDS011;11200;51.488;6.668;2022-11-20T01:52:22;17.98;;;12.48;;
22070;SDS011;11200;51.488;6.668;2022-11-20T01:54:52;16.20;;;12.02;;
22070;SDS011;11200;51.488;6.668;2022-11-20T01:57:23;17.15;;;12.52;;
22070;SDS011;11200;51.488;6.668;2022-11-20T02:00:26;18.00;;;12.82;;
22070;SDS011;11200;51.488;6.668;2022-11-20T02:02:47;16.20;;;12.18;;
22070;SDS011;11200;51.488;6.668;2022-11-20T02:05:19;18.35;;;12.55;;
22070;SDS011;11200;51.488;6.668;2022-11-20T02:07:58;15.80;;;12.20;;
22070;SDS011;11200;51.488;6.668;2022-11-20T02:10:25;17.02;;;12.27;;
22070;SDS011;11200;51.488;6.668;2022-11-20T02:12:52;16.42;;;12.63;;
22070;SDS011;11200;51.488;6.668;2022-11-20T02:15:36;18.38;;;12.52;;
22070;SDS011;11200;51.488;6.668;2022-11-20T02:18:02;18.50;;;12.68;;
22070;SDS011;11200;51.488;6.668;2022-11-20T02:20:28;18.40;;;13.13;;
22070;SDS011;11200;51.488;6.668;2022-11-20T02:22:56;17.63;;;12.52;;
22070;SDS011;11200;51.488;6.668;2022-11-20T02:25:26;18.10;;;12.88;;
22070;SDS011;11200;51.488;6.668;2022-11-20T02:27:54;18.15;;;12.90;;
22070;SDS011;11200;51.488;6.668;2022-11-20T02:30:20;16.40;;;11.93;;
22070;SDS011;11200;51.488;6.668;2022-11-20T02:32:45;16.50;;;12.52;;
22070;SDS011;11200;51.488;6.668;2022-11-20T02:37:42;17.17;;;12.88;;
22070;SDS011;11200;51.488;6.668;2022-11-20T02:40:09;15.40;;;12.05;;
22070;SDS011;11200;51.488;6.668;2022-11-20T02:42:36;17.15;;;12.40;;
22070;SDS011;11200;51.488;6.668;2022-11-20T02:45:03;15.20;;;12.05;;
22070;SDS011;11200;51.488;6.668;2022-11-20T02:47:29;17.15;;;12.35;;
22070;SDS011;11200;51.488;6.668;2022-11-20T02:49:55;16.63;;;12.02;;
22070;SDS011;11200;51.488;6.668;2022-11-20T02:52:20;16.92;;;12.85;;
22070;SDS011;11200;51.488;6.668;2022-11-20T02:54:46;17.45;;;12.93;;
22070;SDS011;11200;51.488;6.668;2022-11-20T02:57:12;17.08;;;12.90;;
22070;SDS011;11200;51.488;6.668;2022-11-20T02:59:37;17.38;;;13.30;;
22070;SDS011;11200;51.488;6.668;2022-11-20T03:02:03;17.70;;;13.05;;
22070;SDS011;11200;51.488;6.668;2022-11-20T03:04:29;17.35;;;12.13;;
22070;SDS011;11200;51.488;6.668;2022-11-20T03:06:55;17.27;;;12.23;;
22070;SDS011;11200;51.488;6.668;2022-11-20T03:09:21;16.08;;;12.00;;
22070;SDS011;11200;51.488;6.668;2022-11-20T03:11:46;16.38;;;12.07;;
22070;SDS011;11200;51.488;6.668;2022-11-20T03:14:14;15.70;;;12.48;;
22070;SDS011;11200;51.488;6.668;2022-11-20T03:16:50;17.67;;;12.50;;
22070;SDS011;11200;51.488;6.668;2022-11-20T03:19:15;15.38;;;12.15;;
22070;SDS011;11200;51.488;6.668;2022-11-20T03:21:41;15.57;;;11.70;;
22070;SDS011;11200;51.488;6.668;2022-11-20T03:24:07;16.73;;;12.20;;
22070;SDS011;11200;51.488;6.668;2022-11-20T03:26:32;16.52;;;12.70;;
22070;SDS011;11200;51.488;6.668;2022-11-20T03:28:59;16.52;;;12.07;;
22070;SDS011;11200;51.488;6.668;2022-11-20T03:31:27;15.07;;;12.02;;
22070;SDS011;11200;51.488;6.668;2022-11-20T03:33:55;15.73;;;12.05;;
22070;SDS011;11200;51.488;6.668;2022-11-20T03:36:21;16.02;;;11.95;;
22070;SDS011;11200;51.488;6.668;2022-11-20T03:38:47;15.73;;;12.07;;
22070;SDS011;11200;51.488;6.668;2022-11-20T03:41:14;16.25;;;12.45;;
22070;SDS011;11200;51.488;6.668;2022-11-20T03:43:48;16.00;;;12.02;;
22070;SDS011;11200;51.488;6.668;2022-11-20T03:46:14;14.00;;;11.30;;
22070;SDS011;11200;51.488;6.668;2022-11-20T03:48:40;16.13;;;12.18;;
22070;SDS011;11200;51.488;6.668;2022-11-20T03:51:16;15.50;;;11.68;;
22070;SDS011;11200;51.488;6.668;2022-11-20T03:53:44;15.32;;;11.70;;
22070;SDS011;11200;51.488;6.668;2022-11-20T03:56:11;15.32;;;12.13;;
22070;SDS011;11200;51.488;6.668;2022-11-20T03:58:38;16.20;;;12.15;;
22070;SDS011;11200;51.488;6.668;2022-11-20T04:01:10;15.85;;;12.02;;
22070;SDS011;11200;51.488;6.668;2022-11-20T04:03:42;15.95;;;11.88;;
22070;SDS011;11200;51.488;6.668;2022-11-20T04:06:12;14.68;;;11.40;;
22070;SDS011;11200;51.488;6.668;2022-11-20T04:08:49;16.42;;;12.00;;
22070;SDS011;11200;51.488;6.668;2022-11-20T04:11:16;15.98;;;11.60;;
22070;SDS011;11200;51.488;6.668;2022-11-20T04:13:48;14.38;;;12.07;;
22070;SDS011;11200;51.488;6.668;2022-11-20T04:16:16;14.80;;;11.55;;
22070;SDS011;11200;51.488;6.668;2022-11-20T04:18:42;14.10;;;11.38;;
22070;SDS011;11200;51.488;6.668;2022-11-20T04:21:08;15.50;;;11.98;;
22070;SDS011;11200;51.488;6.668;2022-11-20T04:23:34;15.18;;;11.55;;
22070;SDS011;11200;51.488;6.668;2022-11-20T04:26:07;15.52;;;11.82;;
22070;SDS011;11200;51.488;6.668;2022-11-20T04:28:34;16.17;;;11.65;;
22070;SDS011;11200;51.488;6.668;2022-11-20T04:31:07;15.02;;;11.63;;
22070;SDS011;11200;51.488;6.668;2022-11-20T04:33:35;15.95;;;12.27;;
22070;SDS011;11200;51.488;6.668;2022-11-20T04:36:07;15.23;;;11.65;;
22070;SDS011;11200;51.488;6.668;2022-11-20T04:39:00;15.32;;;11.75;;
22070;SDS011;11200;51.488;6.668;2022-11-20T04:41:29;13.75;;;10.60;;
22070;SDS011;11200;51.488;6.668;2022-11-20T04:43:57;15.57;;;11.95;;
22070;SDS011;11200;51.488;6.668;2022-11-20T04:46:27;15.27;;;11.13;;
22070;SDS011;11200;51.488;6.668;2022-11-20T04:48:54;14.63;;;11.75;;
22070;SDS011;11200;51.488;6.668;2022-11-20T04:51:20;14.43;;;10.90;;
22070;SDS011;11200;51.488;6.668;2022-11-20T04:53:45;13.65;;;10.73;;
22070;SDS011;11200;51.488;6.668;2022-11-20T04:56:12;15.10;;;11.55;;
22070;SDS011;11200;51.488;6.668;2022-11-20T04:58:38;14.98;;;11.27;;
22070;SDS011;11200;51.488;6.668;2022-11-20T05:01:10;14.68;;;11.93;;
22070;SDS011;11200;51.488;6.668;2022-11-20T05:03:43;14.77;;;11.45;;
22070;SDS011;11200;51.488;6.668;2022-11-20T05:06:16;13.57;;;10.40;;
22070;SDS011;11200;51.488;6.668;2022-11-20T05:08:43;13.23;;;9.98;;
22070;SDS011;11200;51.488;6.668;2022-11-20T05:11:09;16.27;;;11.30;;
22070;SDS011;11200;51.488;6.668;2022-11-20T05:13:40;15.88;;;11.40;;
22070;SDS011;11200;51.488;6.668;2022-11-20T05:16:13;17.02;;;11.35;;
22070;SDS011;11200;51.488;6.668;2022-11-20T05:18:41;15.20;;;10.52;;
22070;SDS011;11200;51.488;6.668;2022-11-20T05:21:15;18.38;;;12.13;;
22070;SDS011;11200;51.488;6.668;2022-11-20T05:23:52;16.63;;;10.88;;
22070;SDS011;11200;51.488;6.668;2022-11-20T05:26:25;17.10;;;11.05;;
22070;SDS011;11200;51.488;6.668;2022-11-20T05:28:51;19.05;;;11.18;;
22070;SDS011;11200;51.488;6.668;2022-11-20T05:31:18;17.30;;;11.45;;
22070;SDS011;11200;51.488;6.668;2022-11-20T05:33:47;15.43;;;11.25;;
22070;SDS011;11200;51.488;6.668;2022-11-20T05:36:14;18.33;;;11.52;;
22070;SDS011;11200;51.488;6.668;2022-11-20T05:38:40;15.35;;;11.40;;
22070;SDS011;11200;51.488;6.668;2022-11-20T05:41:10;14.50;;;10.80;;
22070;SDS011;11200;51.488;6.668;2022-11-20T05:43:41;17.08;;;10.52;;
22070;SDS011;11200;51.488;6.668;2022-11-20T05:46:08;14.13;;;10.23;;
22070;SDS011;11200;51.488;6.668;2022-11-20T05:48:36;15.00;;;10.90;;
22070;SDS011;11200;51.488;6.668;2022-11-20T05:51:03;16.05;;;11.18;;
22070;SDS011;11200;51.488;6.668;2022-11-20T05:53:31;16.80;;;10.93;;
22070;SDS011;11200;51.488;6.668;2022-11-20T05:58:31;13.93;;;10.27;;
22070;SDS011;11200;51.488;6.668;2022-11-20T06:03:42;13.93;;;11.02;;
22070;SDS011;11200;51.488;6.668;2022-11-20T06:06:11;14.88;;;10.52;;
22070;SDS011;11200;51.488;6.668;2022-11-20T06:08:37;14.13;;;11.13;;
22070;SDS011;11200;51.488;6.668;2022-11-20T06:11:06;14.52;;;10.52;;
22070;SDS011;11200;51.488;6.668;2022-11-20T06:13:33;15.32;;;11.10;;
22070;SDS011;11200;51.488;6.668;2022-11-20T06:15:59;14.68;;;11.02;;
22070;SDS011;11200;51.488;6.668;2022-11-20T06:18:25;15.15;;;11.27;;
22070;SDS011;11200;51.488;6.668;2022-11-20T06:21:03;15.82;;;10.93;;
22070;SDS011;11200;51.488;6.668;2022-11-20T06:23:38;15.82;;;11.27;;
22070;SDS011;11200;51.488;6.668;2022-11-20T06:26:08;13.88;;;10.65;;
22070;SDS011;11200;51.488;6.668;2022-11-20T06:28:36;13.52;;;10.88;;
22070;SDS011;11200;51.488;6.668;2022-11-20T06:31:02;15.25;;;11.07;;
22070;SDS011;11200;51.488;6.668;2022-11-20T06:33:28;14.27;;;10.90;;
22070;SDS011;11200;51.488;6.668;2022-11-20T06:35:57;15.00;;;11.10;;
22070;SDS011;11200;51.488;6.668;2022-11-20T06:38:26;15.10;;;11.07;;
22070;SDS011;11200;51.488;6.668;2022-11-20T06:40:52;16.00;;;10.77;;
22070;SDS011;11200;51.488;6.668;2022-11-20T06:43:18;14.45;;;10.70;;
22070;SDS011;11200;51.488;6.668;2022-11-20T06:45:44;14.10;;;10.77;;
22070;SDS011;11200;51.488;6.668;2022-11-20T06:48:10;14.35;;;10.82;;
22070;SDS011;11200;51.488;6.668;2022-11-20T06:50:38;13.90;;;11.00;;
22070;SDS011;11200;51.488;6.668;2022-11-20T06:53:04;16.88;;;11.63;;
22070;SDS011;11200;51.488;6.668;2022-11-20T06:55:30;15.48;;;11.65;;
22070;SDS011;11200;51.488;6.668;2022-11-20T06:57:57;14.57;;;11.18;;
22070;SDS011;11200;51.488;6.668;2022-11-20T07:00:23;15.00;;;11.32;;
22070;SDS011;11200;51.488;6.668;2022-11-20T07:02:49;15.55;;;11.27;;
22070;SDS011;11200;51.488;6.668;2022-11-20T07:05:14;14.02;;;10.98;;
22070;SDS011;11200;51.488;6.668;2022-11-20T07:07:43;14.10;;;10.82;;
22070;SDS011;11200;51.488;6.668;2022-11-20T07:10:09;14.75;;;11.60;;
22070;SDS011;11200;51.488;6.668;2022-11-20T07:12:35;14.57;;;11.07;;
22070;SDS011;11200;51.488;6.668;2022-11-20T07:15:01;14.45;;;11.15;;
22070;SDS011;11200;51.488;6.668;2022-11-20T07:17:26;15.95;;;11.98;;
22070;SDS011;11200;51.488;6.668;2022-11-20T07:19:52;14.35;;;11.00;;
22070;SDS011;11200;51.488;6.668;2022-11-20T07:22:17;14.07;;;10.68;;
22070;SDS011;11200;51.488;6.668;2022-11-20T07:24:46;14.55;;;11.30;;
22070;SDS011;11200;51.488;6.668;2022-11-20T07:27:12;14.77;;;11.23;;
22070;SDS011;11200;51.488;6.668;2022-11-20T07:29:37;13.98;;;11.13;;
22070;SDS011;11200;51.488;6.668;2022-11-20T07:32:03;14.40;;;10.90;;
22070;SDS011;11200;51.488;6.668;2022-11-20T07:34:29;15.73;;;11.68;;
22070;SDS011;11200;51.488;6.668;2022-11-20T07:36:54;16.20;;;11.65;;
22070;SDS011;11200;51.488;6.668;2022-11-20T07:39:20;16.15;;;11.65;;
22070;SDS011;11200;51.488;6.668;2022-11-20T07:41:45;15.43;;;11.38;;
22070;SDS011;11200;51.488;6.668;2022-11-20T07:44:11;14.52;;;10.88;;
22070;SDS011;11200;51.488;6.668;2022-11-20T07:46:37;15.88;;;12.43;;
22070;SDS011;11200;51.488;6.668;2022-11-20T07:49:03;15.30;;;11.57;;
22070;SDS011;11200;51.488;6.668;2022-11-20T07:51:28;12.93;;;10.70;;
22070;SDS011;11200;51.488;6.668;2022-11-20T07:53:54;15.13;;;11.40;;
22070;SDS011;11200;51.488;6.668;2022-11-20T07:56:20;14.10;;;11.00;;
22070;SDS011;11200;51.488;6.668;2022-11-20T07:58:45;14.52;;;11.32;;
22070;SDS011;11200;51.488;6.668;2022-11-20T08:07:09;14.15;;;11.15;;
22070;SDS011;11200;51.488;6.668;2022-11-20T08:09:35;16.00;;;11.10;;
22070;SDS011;11200;51.488;6.668;2022-11-20T08:12:00;15.00;;;11.52;;
22070;SDS011;11200;51.488;6.668;2022-11-20T08:14:44;15.30;;;11.48;;
22070;SDS011;11200;51.488;6.668;2022-11-20T08:17:10;15.50;;;11.55;;
22070;SDS011;11200;51.488;6.668;2022-11-20T08:19:35;13.77;;;11.60;;
22070;SDS011;11200;51.488;6.668;2022-11-20T08:22:01;14.20;;;11.18;;
22070;SDS011;11200;51.488;6.668;2022-11-20T08:24:26;15.90;;;12.38;;
22070;SDS011;11200;51.488;6.668;2022-11-20T08:26:52;14.88;;;11.45;;
22070;SDS011;11200;51.488;6.668;2022-11-20T08:29:20;16.83;;;12.13;;
22070;SDS011;11200;51.488;6.668;2022-11-20T08:31:46;15.00;;;11.35;;
22070;SDS011;11200;51.488;6.668;2022-11-20T08:34:11;14.50;;;11.60;;
22070;SDS011;11200;51.488;6.668;2022-11-20T08:36:37;15.05;;;11.40;;
22070;SDS011;11200;51.488;6.668;2022-11-20T08:39:03;14.35;;;11.35;;
22070;SDS011;11200;51.488;6.668;2022-11-20T08:41:29;16.60;;;11.68;;
22070;SDS011;11200;51.488;6.668;2022-11-20T08:44:02;13.88;;;11.25;;
22070;SDS011;11200;51.488;6.668;2022-11-20T08:46:33;15.68;;;11.60;;
22070;SDS011;11200;51.488;6.668;2022-11-20T08:49:04;13.57;;;11.10;;
22070;SDS011;11200;51.488;6.668;2022-11-20T08:51:30;14.52;;;10.95;;
22070;SDS011;11200;51.488;6.668;2022-11-20T08:53:56;13.85;;;11.43;;
22070;SDS011;11200;51.488;6.668;2022-11-20T08:56:22;14.95;;;11.55;;
22070;SDS011;11200;51.488;6.668;2022-11-20T08:58:49;14.95;;;12.25;;
22070;SDS011;11200;51.488;6.668;2022-11-20T09:01:16;15.73;;;11.75;;
22070;SDS011;11200;51.488;6.668;2022-11-20T09:03:42;14.73;;;12.00;;
22070;SDS011;11200;51.488;6.668;2022-11-20T09:06:08;15.30;;;12.00;;
22070;SDS011;11200;51.488;6.668;2022-11-20T09:08:33;16.55;;;12.30;;
22070;SDS011;11200;51.488;6.668;2022-11-20T09:11:00;15.35;;;11.88;;
22070;SDS011;11200;51.488;6.668;2022-11-20T09:13:27;16.30;;;12.10;;
22070;SDS011;11200;51.488;6.668;2022-11-20T09:15:57;14.90;;;11.88;;
22070;SDS011;11200;51.488;6.668;2022-11-20T09:18:25;15.30;;;11.60;;
22070;SDS011;11200;51.488;6.668;2022-11-20T09:20:58;15.77;;;12.10;;
22070;SDS011;11200;51.488;6.668;2022-11-20T09:23:25;15.13;;;12.07;;
22070;SDS011;11200;51.488;6.668;2022-11-20T09:25:51;17.10;;;12.20;;
22070;SDS011;11200;51.488;6.668;2022-11-20T09:28:20;17.02;;;12.93;;
22070;SDS011;11200;51.488;6.668;2022-11-20T09:30:46;15.98;;;12.30;;
22070;SDS011;11200;51.488;6.668;2022-11-20T09:33:12;17.02;;;13.07;;
22070;SDS011;11200;51.488;6.668;2022-11-20T09:39:24;18.20;;;12.88;;
22070;SDS011;11200;51.488;6.668;2022-11-20T09:55:40;13.25;;;11.52;;
22070;SDS011;11200;51.488;6.668;2022-11-20T09:58:06;14.43;;;12.13;;
22070;SDS011;11200;51.488;6.668;2022-11-20T10:00:37;13.95;;;12.07;;
22070;SDS011;11200;51.488;6.668;2022-11-20T10:03:06;14.35;;;12.13;;
22070;SDS011;11200;51.488;6.668;2022-11-20T10:05:51;14.48;;;11.20;;
22070;SDS011;11200;51.488;6.668;2022-11-20T10:08:28;13.30;;;11.85;;
22070;SDS011;11200;51.488;6.668;2022-11-20T10:11:10;15.52;;;12.52;;
22070;SDS011;11200;51.488;6.668;2022-11-20T10:14:02;12.32;;;10.52;;
22070;SDS011;11200;51.488;6.668;2022-11-20T10:21:54;14.75;;;11.82;;
22070;SDS011;11200;51.488;6.668;2022-11-20T10:29:40;13.43;;;11.00;;
22070;SDS011;11200;51.488;6.668;2022-11-20T10:32:14;13.90;;;11.80;;
22070;SDS011;11200;51.488;6.668;2022-11-20T10:34:50;14.15;;;11.65;;
22070;SDS011;11200;51.488;6.668;2022-11-20T10:37:31;14.48;;;11.55;;
22070;SDS011;11200;51.488;6.668;2022-11-20T10:43:21;15.38;;;12.18;;
22070;SDS011;11200;51.488;6.668;2022-11-20T10:49:51;16.60;;;13.20;;
22070;SDS011;11200;51.488;6.668;2022-11-20T10:52:41;16.33;;;12.85;;
22070;SDS011;11200;51.488;6.668;2022-11-20T11:00:46;17.17;;;13.43;;
22070;SDS011;11200;51.488;6.668;2022-11-20T11:06:05;17.20;;;13.65;;
22070;SDS011;11200;51.488;6.668;2022-11-20T11:08:37;16.35;;;13.02;;
22070;SDS011;11200;51.488;6.668;2022-11-20T11:11:13;16.98;;;13.45;;
22070;SDS011;11200;51.488;6.668;2022-11-20T11:13:49;18.40;;;14.05;;
22070;SDS011;11200;51.488;6.668;2022-11-20T11:16:25;19.92;;;14.50;;
22070;SDS011;11200;51.488;6.668;2022-11-20T11:19:02;20.08;;;14.45;;
22070;SDS011;11200;51.488;6.668;2022-11-20T11:21:29;19.48;;;14.60;;
22070;SDS011;11200;51.488;6.668;2022-11-20T11:24:14;19.35;;;14.35;;
22070;SDS011;11200;51.488;6.668;2022-11-20T11:26:58;19.10;;;13.93;;
22070;SDS011;11200;51.488;6.668;2022-11-20T11:29:29;16.55;;;13.38;;
22070;SDS011;11200;51.488;6.668;2022-11-20T11:34:32;20.90;;;15.00;;
22070;SDS011;11200;51.488;6.668;2022-11-20T11:36:57;20.35;;;14.80;;
22070;SDS011;11200;51.488;6.668;2022-11-20T11:39:26;19.60;;;14.25;;
22070;SDS011;11200;51.488;6.668;2022-11-20T11:41:53;18.92;;;14.30;;
22070;SDS011;11200;51.488;6.668;2022-11-20T11:44:20;19.95;;;15.05;;
22070;SDS011;11200;51.488;6.668;2022-11-20T11:47:25;19.38;;;14.55;;
22070;SDS011;11200;51.488;6.668;2022-11-20T11:52:39;19.67;;;14.77;;
22070;SDS011;11200;51.488;6.668;2022-11-20T11:55:36;20.60;;;15.70;;
22070;SDS011;11200;51.488;6.668;2022-11-20T12:03:44;22.98;;;15.60;;
22070;SDS011;11200;51.488;6.668;2022-11-20T12:06:24;22.65;;;15.65;;
22070;SDS011;11200;51.488;6.668;2022-11-20T12:11:30;22.63;;;15.98;;
22070;SDS011;11200;51.488;6.668;2022-11-20T12:16:58;20.42;;;15.05;;
22070;SDS011;11200;51.488;6.668;2022-11-20T12:19:26;21.77;;;15.63;;
22070;SDS011;11200;51.488;6.668;2022-11-20T12:22:14;21.05;;;14.50;;
22070;SDS011;11200;51.488;6.668;2022-11-20T12:25:04;21.58;;;14.93;;
22070;SDS011;11200;51.488;6.668;2022-11-20T12:30:32;19.58;;;14.88;;
22070;SDS011;11200;51.488;6.668;2022-11-20T12:33:09;22.42;;;15.32;;
22070;SDS011;11200;51.488;6.668;2022-11-20T12:36:06;21.50;;;15.43;;
22070;SDS011;11200;51.488;6.668;2022-11-20T12:45:24;25.17;;;16.33;;
22070;SDS011;11200;51.488;6.668;2022-11-20T12:50:28;24.55;;;16.45;;
22070;SDS011;11200;51.488;6.668;2022-11-20T12:53:28;21.90;;;15.45;;
22070;SDS011;11200;51.488;6.668;2022-11-20T12:56:20;23.92;;;16.25;;
22070;SDS011;11200;51.488;6.668;2022-11-20T13:02:19;22.38;;;16.00;;
22070;SDS011;11200;51.488;6.668;2022-11-20T13:07:34;21.17;;;15.63;;
22070;SDS011;11200;51.488;6.668;2022-11-20T13:10:00;22.40;;;15.32;;
22070;SDS011;11200;51.488;6.668;2022-11-20T13:12:35;23.75;;;16.27;;
22070;SDS011;11200;51.488;6.668;2022-11-20T13:18:02;23.80;;;15.98;;
22070;SDS011;11200;51.488;6.668;2022-11-20T13:20:30;20.60;;;15.05;;
22070;SDS011;11200;51.488;6.668;2022-11-20T13:22:58;20.52;;;14.90;;
22070;SDS011;11200;51.488;6.668;2022-11-20T13:25:33;20.85;;;15.10;;
22070;SDS011;11200;51.488;6.668;2022-11-20T13:28:01;20.92;;;15.32;;
22070;SDS011;11200;51.488;6.668;2022-11-20T13:30:30;21.58;;;15.57;;
22070;SDS011;11200;51.488;6.668;2022-11-20T13:33:04;20.90;;;15.07;;
22070;SDS011;11200;51.488;6.668;2022-11-20T13:35:37;20.95;;;14.57;;
22070;SDS011;11200;51.488;6.668;2022-11-20T13:38:10;21.90;;;15.23;;
22070;SDS011;11200;51.488;6.668;2022-11-20T13:40:59;22.95;;;15.48;;
22070;SDS011;11200;51.488;6.668;2022-11-20T13:43:44;22.02;;;14.77;;
22070;SDS011;11200;51.488;6.668;2022-11-20T13:46:15;21.60;;;15.60;;
22070;SDS011;11200;51.488;6.668;2022-11-20T13:48:42;23.17;;;15.63;;
22070;SDS011;11200;51.488;6.668;2022-11-20T14:02:22;21.33;;;15.18;;
22070;SDS011;11200;51.488;6.668;2022-11-20T14:04:51;21.63;;;15.23;;
22070;SDS011;11200;51.488;6.668;2022-11-20T14:07:20;22.02;;;15.50;;
22070;SDS011;11200;51.488;6.668;2022-11-20T14:09:53;19.60;;;14.27;;
22070;SDS011;11200;51.488;6.668;2022-11-20T14:12:20;19.58;;;14.15;;
22070;SDS011;11200;51.488;6.668;2022-11-20T14:14:51;23.25;;;15.88;;
22070;SDS011;11200;51.488;6.668;2022-11-20T14:17:22;22.92;;;16.00;;
22070;SDS011;11200;51.488;6.668;2022-11-20T14:20:00;21.25;;;15.30;;
22070;SDS011;11200;51.488;6.668;2022-11-20T14:22:28;24.35;;;17.58;;
22070;SDS011;11200;51.488;6.668;2022-11-20T14:27:56;25.63;;;17.70;;
22070;SDS011;11200;51.488;6.668;2022-11-20T14:30:24;24.65;;;17.30;;
22070;SDS011;11200;51.488;6.668;2022-11-20T14:33:01;22.42;;;16.02;;
22070;SDS011;11200;51.488;6.668;2022-11-20T14:35:35;21.85;;;16.17;;
22070;SDS011;11200;51.488;6.668;2022-11-20T14:38:08;23.08;;;16.02;;
22070;SDS011;11200;51.488;6.668;2022-11-20T14:40:38;20.67;;;14.77;;
22070;SDS011;11200;51.488;6.668;2022-11-20T14:43:26;21.50;;;15.68;;
22070;SDS011;11200;51.488;6.668;2022-11-20T14:45:55;20.88;;;15.18;;
22070;SDS011;11200;51.488;6.668;2022-11-20T14:48:33;21.45;;;15.13;;
22070;SDS011;11200;51.488;6.668;2022-11-20T14:51:28;19.65;;;15.10;;
22070;SDS011;11200;51.488;6.668;2022-11-20T14:53:54;22.42;;;16.10;;
22070;SDS011;11200;51.488;6.668;2022-11-20T14:56:23;22.55;;;15.48;;
22070;SDS011;11200;51.488;6.668;2022-11-20T14:58:56;21.60;;;15.13;;
22070;SDS011;11200;51.488;6.668;2022-11-20T15:01:26;21.50;;;15.38;;
22070;SDS011;11200;51.488;6.668;2022-11-20T15:04:06;21.95;;;16.08;;
22070;SDS011;11200;51.488;6.668;2022-11-20T15:06:36;20.52;;;15.45;;
22070;SDS011;11200;51.488;6.668;2022-11-20T15:09:04;24.30;;;15.63;;
22070;SDS011;11200;51.488;6.668;2022-11-20T15:11:38;21.35;;;14.57;;
22070;SDS011;11200;51.488;6.668;2022-11-20T15:14:06;19.90;;;14.27;;
22070;SDS011;11200;51.488;6.668;2022-11-20T15:16:34;22.38;;;15.52;;
22070;SDS011;11200;51.488;6.668;2022-11-20T15:18:59;20.85;;;14.90;;
22070;SDS011;11200;51.488;6.668;2022-11-20T15:21:27;22.50;;;15.18;;
22070;SDS011;11200;51.488;6.668;2022-11-20T15:23:54;19.13;;;13.93;;
22070;SDS011;11200;51.488;6.668;2022-11-20T15:26:21;20.80;;;15.02;;
22070;SDS011;11200;51.488;6.668;2022-11-20T15:28:49;20.77;;;15.20;;
22070;SDS011;11200;51.488;6.668;2022-11-20T15:31:17;20.10;;;15.05;;
22070;SDS011;11200;51.488;6.668;2022-11-20T15:33:45;22.40;;;14.65;;
22070;SDS011;11200;51.488;6.668;2022-11-20T15:36:11;20.77;;;14.68;;
22070;SDS011;11200;51.488;6.668;2022-11-20T15:38:37;20.08;;;14.68;;
22070;SDS011;11200;51.488;6.668;2022-11-20T15:41:03;19.55;;;14.48;;
22070;SDS011;11200;51.488;6.668;2022-11-20T15:43:29;21.88;;;15.07;;
22070;SDS011;11200;51.488;6.668;2022-11-20T15:45:55;22.73;;;15.85;;
22070;SDS011;11200;51.488;6.668;2022-11-20T15:48:28;20.27;;;15.20;;
22070;SDS011;11200;51.488;6.668;2022-11-20T15:53:37;20.15;;;14.43;;
22070;SDS011;11200;51.488;6.668;2022-11-20T15:56:03;18.92;;;13.90;;
22070;SDS011;11200;51.488;6.668;2022-11-20T15:58:29;18.95;;;13.95;;
22070;SDS011;11200;51.488;6.668;2022-11-20T16:00:55;18.45;;;13.82;;
22070;SDS011;11200;51.488;6.668;2022-11-20T16:03:21;18.92;;;13.60;;
22070;SDS011;11200;51.488;6.668;2022-11-20T16:05:47;18.73;;;13.70;;
22070;SDS011;11200;51.488;6.668;2022-11-20T16:08:13;22.02;;;15.13;;
22070;SDS011;11200;51.488;6.668;2022-11-20T16:10:39;20.30;;;14.73;;
22070;SDS011;11200;51.488;6.668;2022-11-20T16:13:05;19.50;;;13.77;;
22070;SDS011;11200;51.488;6.668;2022-11-20T16:16:04;17.55;;;13.48;;
22070;SDS011;11200;51.488;6.668;2022-11-20T16:18:34;18.23;;;14.32;;
22070;SDS011;11200;51.488;6.668;2022-11-20T16:20:59;20.05;;;13.73;;
22070;SDS011;11200;51.488;6.668;2022-11-20T16:23:25;19.67;;;14.43;;
22070;SDS011;11200;51.488;6.668;2022-11-20T16:25:51;20.20;;;14.77;;
22070;SDS011;11200;51.488;6.668;2022-11-20T16:28:17;18.45;;;13.77;;